createdAt,value
2018-09-29T00:00:25.944Z,88.12
2018-09-29T00:01:35.779Z,88.22
2018-09-29T00:02:45.900Z,87.93
2018-09-29T00:03:55.959Z,88.12
2018-09-29T00:05:06.374Z,88.02
2018-09-29T00:06:16.206Z,88.12
2018-09-29T00:07:26.286Z,88.12
2018-09-29T00:08:36.433Z,88.22
2018-09-29T00:09:46.530Z,88.02
2018-09-29T00:10:56.604Z,88.22
2018-09-29T00:12:06.444Z,88.02
2018-09-29T00:13:16.535Z,88.12
2018-09-29T00:14:26.593Z,88.12
2018-09-29T00:15:36.691Z,88.02
2018-09-29T00:16:46.770Z,87.93
2018-09-29T00:17:56.674Z,88.02
2018-09-29T00:19:07.051Z,88.22
2018-09-29T00:20:17.111Z,88.02
2018-09-29T00:21:26.644Z,88.22
2018-09-29T00:22:36.504Z,87.93
2018-09-29T00:23:46.315Z,88.12
2018-09-29T00:24:56.406Z,88.22
2018-09-29T00:26:06.204Z,87.74
2018-09-29T00:27:16.332Z,87.74
2018-09-29T00:28:25.633Z,87.7
2018-09-29T00:29:35.700Z,87.88
2018-09-29T00:30:45.777Z,88.08
2018-09-29T00:31:55.869Z,88.12
2018-09-29T00:33:05.959Z,88.08
2018-09-29T00:34:16.037Z,87.88
2018-09-29T00:35:26.118Z,87.98
2018-09-29T00:36:36.190Z,88.08
2018-09-29T00:37:45.987Z,87.88
2018-09-29T00:38:56.119Z,88.13
2018-09-29T00:40:06.205Z,88.27
2018-09-29T00:41:16.288Z,88.27
2018-09-29T00:42:26.359Z,88.03
2018-09-29T00:43:36.431Z,88.03
2018-09-29T00:44:46.489Z,88.13
2018-09-29T00:45:56.690Z,88.13
2018-09-29T00:47:06.511Z,88.03
2018-09-29T00:48:16.326Z,88.03
2018-09-29T00:49:26.466Z,88.03
2018-09-29T00:50:36.533Z,87.94
2018-09-29T00:51:46.618Z,87.94
2018-09-29T00:52:56.787Z,88.13
2018-09-29T00:54:08.414Z,88.23
2018-09-29T00:55:18.327Z,87.94
2018-09-29T00:56:28.390Z,88.13
2018-09-29T00:57:38.219Z,88.13
2018-09-29T00:58:48.539Z,88.03
2018-09-29T00:59:58.363Z,87.94
2018-09-29T01:01:10.843Z,88.23
2018-09-29T01:02:20.917Z,88.03
2018-09-29T01:03:31.007Z,88.23
2018-09-29T01:04:40.801Z,88.23
2018-09-29T01:05:50.614Z,88.23
2018-09-29T01:07:00.731Z,88.23
2018-09-29T01:08:10.867Z,88.23
2018-09-29T01:09:20.947Z,87.94
2018-09-29T01:10:30.791Z,87.65
2018-09-29T01:11:40.582Z,87.46
2018-09-29T01:12:50.621Z,87.65
2018-09-29T01:14:00.163Z,87.65
2018-09-29T01:15:10.226Z,87.84
2018-09-29T01:16:20.279Z,87.84
2018-09-29T01:17:30.075Z,87.55
2018-09-29T01:18:40.223Z,87.55
2018-09-29T01:19:50.347Z,87.46
2018-09-29T01:21:00.137Z,87.46
2018-09-29T01:22:09.931Z,87.99
2018-09-29T01:23:20.005Z,87.55
2018-09-29T01:24:29.649Z,88.03
2018-09-29T01:25:39.727Z,87.74
2018-09-29T01:26:49.897Z,87.61
2018-09-29T01:27:59.716Z,87.99
2018-09-29T01:29:09.779Z,87.99
2018-09-29T01:30:19.875Z,87.8
2018-09-29T01:31:29.937Z,87.61
2018-09-29T01:32:39.785Z,87.61
2018-09-29T01:33:49.839Z,87.41
2018-09-29T01:34:59.899Z,87.51
2018-09-29T01:36:09.999Z,87.8
2018-09-29T01:37:20.105Z,87.8
2018-09-29T01:38:29.932Z,87.99
2018-09-29T01:39:40.557Z,87.8
2018-09-29T01:40:54.511Z,87.61
2018-09-29T01:42:11.453Z,87.7
2018-09-29T01:43:25.066Z,87.51
2018-09-29T01:44:38.307Z,87.51
2018-09-29T01:45:48.878Z,87.41
2018-09-29T01:46:58.943Z,87.8
2018-09-29T01:48:11.241Z,88.09
2018-09-29T01:49:21.037Z,88.09
2018-09-29T01:50:30.865Z,87.99
2018-09-29T01:51:40.938Z,88.23
2018-09-29T01:52:51.040Z,87.76
2018-09-29T01:54:01.391Z,87.85
2018-09-29T01:55:11.196Z,87.95
2018-09-29T01:56:21.323Z,87.76
2018-09-29T01:57:31.388Z,87.66
2018-09-29T01:58:41.482Z,87.95
2018-09-29T01:59:51.558Z,87.85
2018-09-29T02:01:01.651Z,87.95
2018-09-29T02:02:11.722Z,87.85
2018-09-29T02:03:21.518Z,87.76
2018-09-29T02:04:31.105Z,88.04
2018-09-29T02:05:40.924Z,87.56
2018-09-29T02:06:50.728Z,87.76
2018-09-29T02:08:00.855Z,87.37
2018-09-29T02:09:11.412Z,87.56
2018-09-29T02:10:21.544Z,87.56
2018-09-29T02:11:31.622Z,87.37
2018-09-29T02:12:41.443Z,87.56
2018-09-29T02:13:51.527Z,87.56
2018-09-29T02:15:01.611Z,87.76
2018-09-29T02:16:11.416Z,87.37
2018-09-29T02:17:21.246Z,88.04
2018-09-29T02:18:31.306Z,87.76
2018-09-29T02:19:41.394Z,87.62
2018-09-29T02:20:51.468Z,87.76
2018-09-29T02:22:01.590Z,87.71
2018-09-29T02:23:11.661Z,87.71
2018-09-29T02:24:21.745Z,87.62
2018-09-29T02:25:31.545Z,87.66
2018-09-29T02:26:41.616Z,88
2018-09-29T02:27:51.688Z,87.62
2018-09-29T02:29:01.937Z,87.52
2018-09-29T02:30:11.774Z,87.56
2018-09-29T02:31:21.862Z,87.66
2018-09-29T02:32:31.956Z,87.47
2018-09-29T02:33:41.809Z,87.23
2018-09-29T02:34:51.892Z,87.23
2018-09-29T02:36:01.686Z,87.47
2018-09-29T02:37:11.810Z,87.33
2018-09-29T02:38:21.891Z,87.14
2018-09-29T02:39:32.095Z,87.43
2018-09-29T02:40:41.918Z,87.23
2018-09-29T02:41:52.009Z,87.33
2018-09-29T02:43:02.347Z,87.9
2018-09-29T02:44:12.438Z,87.33
2018-09-29T02:45:23.451Z,87.43
2018-09-29T02:46:33.256Z,87.23
2018-09-29T02:47:43.344Z,87.33
2018-09-29T02:48:53.434Z,87.9
2018-09-29T02:50:05.732Z,87.23
2018-09-29T02:51:15.835Z,87.33
2018-09-29T02:52:25.925Z,87.14
2018-09-29T02:53:36.004Z,87.43
2018-09-29T02:54:45.805Z,87.14
2018-09-29T02:55:55.876Z,87.33
2018-09-29T02:57:06.048Z,87.33
2018-09-29T02:58:15.860Z,87.9
2018-09-29T02:59:25.940Z,87.14
2018-09-29T03:00:36.019Z,88
2018-09-29T03:01:46.079Z,87.52
2018-09-29T03:34:32.096Z,82.15
2018-09-29T03:35:42.141Z,82.24
2018-09-29T03:36:52.216Z,83.67
2018-09-29T03:38:03.496Z,84.16
2018-09-29T03:39:13.559Z,84.92
2018-09-29T03:40:23.613Z,85.21
2018-09-29T03:41:33.414Z,85.87
2018-09-29T03:42:43.489Z,86.35
2018-09-29T03:43:53.542Z,86.16
2018-09-29T03:45:04.826Z,86.44
2018-09-29T03:46:14.714Z,86.73
2018-09-29T03:47:24.792Z,86.96
2018-09-29T03:48:34.885Z,87.25
2018-09-29T03:49:44.947Z,87.15
2018-09-29T03:50:55.007Z,87.06
2018-09-29T03:52:05.110Z,87.25
2018-09-29T03:53:15.179Z,86.82
2018-09-29T03:54:25.299Z,87.01
2018-09-29T03:55:35.091Z,87.1
2018-09-29T03:56:44.896Z,86.82
2018-09-29T03:57:54.958Z,86.82
2018-09-29T03:59:05.029Z,87.2
2018-09-29T04:00:15.097Z,87.15
2018-09-29T04:01:24.654Z,87.24
2018-09-29T04:02:34.757Z,86.96
2018-09-29T04:03:44.771Z,87.24
2018-09-29T04:04:54.838Z,87.24
2018-09-29T04:06:05.054Z,87.15
2018-09-29T04:07:14.598Z,87.15
2018-09-29T04:08:24.659Z,87.24
2018-09-29T04:09:34.495Z,87.43
2018-09-29T04:10:44.554Z,87.24
2018-09-29T04:11:54.639Z,87.82
2018-09-29T04:13:04.695Z,87.24
2018-09-29T04:14:14.522Z,87.34
2018-09-29T04:15:24.377Z,87.72
2018-09-29T04:16:34.517Z,87.72
2018-09-29T04:17:44.331Z,87.15
2018-09-29T04:18:54.413Z,87.19
2018-09-29T04:20:05.274Z,87.19
2018-09-29T04:21:15.370Z,87.29
2018-09-29T04:22:25.435Z,87.19
2018-09-29T04:23:35.488Z,87.76
2018-09-29T04:24:45.547Z,87.76
2018-09-29T04:25:55.338Z,87.95
2018-09-29T04:27:05.400Z,87.86
2018-09-29T04:28:15.510Z,87.86
2018-09-29T04:29:25.578Z,87.95
2018-09-29T04:30:35.649Z,87.95
2018-09-29T04:31:45.456Z,87.48
2018-09-29T04:32:55.689Z,87.66
2018-09-29T04:34:05.480Z,87.66
2018-09-29T04:35:15.651Z,87.57
2018-09-29T04:36:25.709Z,87.66
2018-09-29T04:37:35.511Z,87.66
2018-09-29T04:38:45.623Z,88.05
2018-09-29T04:39:55.735Z,88.05
2018-09-29T04:41:05.830Z,87.95
2018-09-29T04:42:15.900Z,87.48
2018-09-29T04:43:25.981Z,87.66
2018-09-29T04:44:36.173Z,87.38
2018-09-29T04:45:46.237Z,87.34
2018-09-29T04:46:56.400Z,87.62
2018-09-29T04:48:08.428Z,88.01
2018-09-29T04:49:18.447Z,88.01
2018-09-29T04:50:28.541Z,87.91
2018-09-29T04:51:38.614Z,87.72
2018-09-29T04:52:48.680Z,87.72
2018-09-29T04:53:58.736Z,87.82
2018-09-29T04:55:09.010Z,88.01
2018-09-29T04:56:18.810Z,87.82
2018-09-29T04:57:28.917Z,87.72
2018-09-29T04:58:38.730Z,87.96
2018-09-29T04:59:48.807Z,87.77
2018-09-29T05:00:58.881Z,87.96
2018-09-29T05:02:09.027Z,87.77
2018-09-29T05:03:19.103Z,87.96
2018-09-29T05:04:29.175Z,87.58
2018-09-29T05:05:38.966Z,87.58
2018-09-29T05:06:49.019Z,87.1
2018-09-29T05:07:59.096Z,87.1
2018-09-29T05:09:08.388Z,87.29
2018-09-29T05:10:18.283Z,87.2
2018-09-29T05:11:28.072Z,87.58
2018-09-29T05:12:38.135Z,87.58
2018-09-29T05:13:48.322Z,86.91
2018-09-29T05:14:58.564Z,86.82
2018-09-29T05:16:08.370Z,87.01
2018-09-29T05:17:18.435Z,87.01
2018-09-29T05:18:28.504Z,87.29
2018-09-29T05:19:38.293Z,87.39
2018-09-29T05:20:48.089Z,87.29
2018-09-29T05:21:57.893Z,87.01
2018-09-29T05:23:10.085Z,87.01
2018-09-29T05:24:20.518Z,87.01
2018-09-29T05:25:30.592Z,86.72
2018-09-29T05:26:40.442Z,86.72
2018-09-29T05:27:50.252Z,86.82
2018-09-29T05:29:00.075Z,86.82
2018-09-29T05:30:10.755Z,86.82
2018-09-29T05:31:20.670Z,86.91
2018-09-29T05:32:30.738Z,86.72
2018-09-29T05:33:40.822Z,86.82
2018-09-29T05:34:50.912Z,86.72
2018-09-29T05:36:02.011Z,86.82
2018-09-29T05:37:12.324Z,86.72
2018-09-29T05:38:22.453Z,86.82
2018-09-29T05:39:32.890Z,86.53
2018-09-29T05:40:42.799Z,86.72
2018-09-29T05:41:52.867Z,86.15
2018-09-29T05:43:02.782Z,86.43
2018-09-29T05:44:12.640Z,86.43
2018-09-29T05:45:22.467Z,86.34
2018-09-29T05:46:32.542Z,86.34
2018-09-29T05:47:42.357Z,86.24
2018-09-29T05:48:52.204Z,86.43
2018-09-29T05:50:02.572Z,86.76
2018-09-29T05:51:12.640Z,86.34
2018-09-29T05:52:22.714Z,86.38
2018-09-29T05:53:32.795Z,86.24
2018-09-29T05:54:42.338Z,86.15
2018-09-29T05:55:52.395Z,86.29
2018-09-29T05:57:02.211Z,86.47
2018-09-29T05:58:12.177Z,86.57
2018-09-29T05:59:22.245Z,86.38
2018-09-29T06:00:32.551Z,86.67
2018-09-29T06:01:42.862Z,86.67
2018-09-29T06:02:52.942Z,86.67
2018-09-29T06:04:02.766Z,85.9
2018-09-29T06:05:12.061Z,86.47
2018-09-29T06:06:22.321Z,86.29
2018-09-29T06:07:32.655Z,86.38
2018-09-29T06:08:43.079Z,86.29
2018-09-29T06:09:52.928Z,86.29
2018-09-29T06:11:02.845Z,86.29
2018-09-29T06:12:12.737Z,86.1
2018-09-29T06:13:22.564Z,86.19
2018-09-29T06:14:32.476Z,86.38
2018-09-29T06:15:42.569Z,86.19
2018-09-29T06:16:52.750Z,86.29
2018-09-29T06:18:05.296Z,86.19
2018-09-29T06:19:15.364Z,86.47
2018-09-29T06:20:25.450Z,86.14
2018-09-29T06:21:35.541Z,86.1
2018-09-29T06:22:45.627Z,86.61
2018-09-29T06:23:55.819Z,86.14
2018-09-29T06:25:05.935Z,86.14
2018-09-29T06:26:16.037Z,86.04
2018-09-29T06:27:26.099Z,86.14
2018-09-29T06:28:36.183Z,85.85
2018-09-29T06:29:46.003Z,86.23
2018-09-29T06:30:56.137Z,86.14
2018-09-29T06:32:06.239Z,86.23
2018-09-29T06:33:16.034Z,86.14
2018-09-29T06:34:25.841Z,85.66
2018-09-29T06:35:35.911Z,86.04
2018-09-29T06:36:46.246Z,85.94
2018-09-29T06:37:56.638Z,85.94
2018-09-29T06:39:08.967Z,86.04
2018-09-29T06:40:18.802Z,85.47
2018-09-29T06:41:28.679Z,85.66
2018-09-29T06:42:38.750Z,85.28
2018-09-29T06:43:48.848Z,85.09
2018-09-29T06:44:58.665Z,85.32
2018-09-29T06:46:08.854Z,85.51
2018-09-29T06:47:18.933Z,85.32
2018-09-29T06:48:28.997Z,85.41
2018-09-29T06:49:39.063Z,85.32
2018-09-29T06:50:49.154Z,85.32
2018-09-29T06:51:59.240Z,85.41
2018-09-29T06:53:09.321Z,85.41
2018-09-29T06:54:19.209Z,85.61
2018-09-29T06:55:29.413Z,85.41
2018-09-29T06:56:39.232Z,85.41
2018-09-29T06:57:49.076Z,85.51
2018-09-29T06:58:59.353Z,85.22
2018-09-29T07:00:09.436Z,85.41
2018-09-29T07:01:19.266Z,85.61
2018-09-29T07:02:29.339Z,85.61
2018-09-29T07:03:39.438Z,85.41
2018-09-29T07:04:49.529Z,85.51
2018-09-29T07:05:59.651Z,85.46
2018-09-29T07:07:10.520Z,85.36
2018-09-29T07:08:20.618Z,85.46
2018-09-29T07:09:30.441Z,85.27
2018-09-29T07:10:40.530Z,85.46
2018-09-29T07:11:50.627Z,85.55
2018-09-29T07:13:00.909Z,85.36
2018-09-29T07:14:10.753Z,85.36
2018-09-29T07:15:20.847Z,85.46
2018-09-29T07:16:30.962Z,85.36
2018-09-29T07:17:41.053Z,85.36
2018-09-29T07:18:51.145Z,85.65
2018-09-29T07:20:00.171Z,85.46
2018-09-29T07:21:10.271Z,85.46
2018-09-29T07:22:20.392Z,85.55
2018-09-29T07:23:30.487Z,85.46
2018-09-29T07:24:40.558Z,85.31
2018-09-29T07:25:50.403Z,85.5
2018-09-29T07:27:00.493Z,85.31
2018-09-29T07:28:10.623Z,85.41
2018-09-29T07:29:20.706Z,85.31
2018-09-29T07:30:30.797Z,85.31
2018-09-29T07:31:40.996Z,85.31
2018-09-29T07:32:51.136Z,85.6
2018-09-29T07:34:01.248Z,85.41
2018-09-29T07:35:11.349Z,85.54
2018-09-29T07:36:21.437Z,85.64
2018-09-29T07:37:31.515Z,85.5
2018-09-29T07:38:41.333Z,85.83
2018-09-29T07:39:51.424Z,85.45
2018-09-29T07:41:01.250Z,85.54
2018-09-29T07:42:11.335Z,85.64
2018-09-29T07:43:21.164Z,85.64
2018-09-29T07:44:31.235Z,85.64
2018-09-29T07:45:41.059Z,85.64
2018-09-29T07:46:51.157Z,85.74
2018-09-29T07:48:02.091Z,85.74
2018-09-29T07:49:12.196Z,85.64
2018-09-29T07:50:22.811Z,85.45
2018-09-29T07:51:32.897Z,85.45
2018-09-29T07:52:42.733Z,85.83
2018-09-29T07:53:52.577Z,85.74
2018-09-29T07:55:03.816Z,85.45
2018-09-29T07:56:13.961Z,85.64
2018-09-29T07:57:23.933Z,85.45
2018-09-29T07:58:34.043Z,85.45
2018-09-29T07:59:44.135Z,85.64
2018-09-29T08:00:54.272Z,85.54
2018-09-29T08:02:04.390Z,85.25
2018-09-29T08:03:14.481Z,85.45
2018-09-29T08:04:24.574Z,85.45
2018-09-29T08:05:34.674Z,85.39
2018-09-29T08:06:44.754Z,85.45
2018-09-29T08:07:54.322Z,85.49
2018-09-29T08:09:04.406Z,85.49
2018-09-29T08:10:13.958Z,85.49
2018-09-29T08:11:23.797Z,85.49
2018-09-29T08:12:33.887Z,85.49
2018-09-29T08:13:44.084Z,85.49
2018-09-29T08:14:54.233Z,85.39
2018-09-29T08:16:04.070Z,85.3
2018-09-29T08:17:13.905Z,85.3
2018-09-29T08:18:24.057Z,85.21
2018-09-29T08:19:34.148Z,85.39
2018-09-29T08:20:44.460Z,85.3
2018-09-29T08:21:54.550Z,85.11
2018-09-29T08:23:04.643Z,85.11
2018-09-29T08:24:14.555Z,85.05
2018-09-29T08:25:25.008Z,85.44
2018-09-29T08:26:35.174Z,85.34
2018-09-29T08:27:45.322Z,85.25
2018-09-29T08:28:55.414Z,85.25
2018-09-29T08:30:08.030Z,85.25
2018-09-29T08:31:18.143Z,85.05
2018-09-29T08:32:28.471Z,85.25
2018-09-29T08:33:38.374Z,84.95
2018-09-29T08:34:48.457Z,84.95
2018-09-29T08:35:58.552Z,84.95
2018-09-29T08:37:08.669Z,85.05
2018-09-29T08:38:18.834Z,84.95
2018-09-29T08:39:28.696Z,85.15
2018-09-29T08:40:38.811Z,85.05
2018-09-29T08:41:48.641Z,84.86
2018-09-29T08:42:58.458Z,84.95
2018-09-29T08:44:09.012Z,84.81
2018-09-29T08:45:19.243Z,84.91
2018-09-29T08:46:29.357Z,84.91
2018-09-29T08:47:39.569Z,85.1
2018-09-29T08:48:49.408Z,84.91
2018-09-29T08:49:59.489Z,85
2018-09-29T08:51:09.598Z,85.1
2018-09-29T08:52:19.694Z,84.81
2018-09-29T08:53:29.981Z,85.1
2018-09-29T08:54:40.302Z,85.28
2018-09-29T08:55:50.454Z,85.1
2018-09-29T08:57:01.924Z,85
2018-09-29T08:58:12.009Z,84.61
2018-09-29T08:59:22.091Z,84.91
2018-09-29T09:00:32.215Z,84.71
2018-09-29T09:01:42.357Z,84.56
2018-09-29T09:02:52.178Z,84.75
2018-09-29T09:04:02.183Z,84.71
2018-09-29T09:05:12.503Z,84.91
2018-09-29T09:06:22.629Z,84.95
2018-09-29T09:07:32.733Z,84.95
2018-09-29T09:08:42.804Z,84.95
2018-09-29T09:09:52.934Z,85.04
2018-09-29T09:11:05.335Z,85.04
2018-09-29T09:12:15.427Z,85.14
2018-09-29T09:13:26.288Z,84.95
2018-09-29T09:14:36.402Z,84.56
2018-09-29T09:15:46.504Z,84.47
2018-09-29T09:16:56.765Z,84.66
2018-09-29T09:18:07.170Z,84.66
2018-09-29T09:19:17.254Z,84.18
2018-09-29T09:20:27.347Z,84.51
2018-09-29T09:21:37.167Z,84.41
2018-09-29T09:22:47.274Z,84.7
2018-09-29T09:23:57.287Z,84.31
2018-09-29T09:25:07.542Z,84.41
2018-09-29T09:26:17.626Z,84.7
2018-09-29T09:27:27.730Z,84.7
2018-09-29T09:28:37.802Z,84.8
2018-09-29T09:29:47.736Z,84.99
2018-09-29T09:30:57.782Z,84.51
2018-09-29T09:32:09.305Z,84.22
2018-09-29T09:33:19.143Z,84.31
2018-09-29T09:34:29.217Z,84.22
2018-09-29T09:35:39.319Z,84.41
2018-09-29T09:36:49.398Z,84.64
2018-09-29T09:37:59.487Z,84.94
2018-09-29T09:39:11.085Z,84.74
2018-09-29T09:40:21.188Z,84.7
2018-09-29T09:41:31.274Z,84.64
2018-09-29T09:42:41.415Z,84.64
2018-09-29T09:43:51.324Z,84.45
2018-09-29T09:45:02.997Z,84.6
2018-09-29T09:46:13.100Z,84.22
2018-09-29T09:47:23.331Z,84.6
2018-09-29T09:48:33.428Z,84.64
2018-09-29T09:49:43.514Z,84.94
2018-09-29T09:50:53.342Z,84.41
2018-09-29T09:52:03.450Z,84.89
2018-09-29T09:53:13.549Z,84.84
2018-09-29T09:54:23.652Z,84.7
2018-09-29T09:55:33.752Z,84.74
2018-09-29T09:56:43.850Z,85.03
2018-09-29T09:57:53.940Z,84.55
2018-09-29T09:59:05.523Z,84.74
2018-09-29T10:00:15.600Z,84.78
2018-09-29T10:01:25.704Z,84.98
2018-09-29T10:02:35.775Z,84.88
2018-09-29T10:03:45.859Z,84.78
2018-09-29T10:04:55.964Z,85.07
2018-09-29T10:06:06.044Z,85.07
2018-09-29T10:07:16.133Z,84.78
2018-09-29T10:08:26.264Z,84.78
2018-09-29T10:09:36.406Z,84.98
2018-09-29T10:10:46.254Z,84.98
2018-09-29T10:11:56.314Z,84.69
2018-09-29T10:13:06.417Z,85.07
2018-09-29T10:14:16.498Z,84.88
2018-09-29T10:15:26.580Z,84.4
2018-09-29T10:16:36.655Z,84.3
2018-09-29T10:17:46.755Z,84.4
2018-09-29T10:18:56.579Z,84.92
2018-09-29T10:20:06.399Z,84.92
2018-09-29T10:21:15.967Z,84.34
2018-09-29T10:22:26.080Z,84.44
2018-09-29T10:23:35.941Z,84.69
2018-09-29T10:24:46.039Z,84.69
2018-09-29T10:25:55.900Z,84.21
2018-09-29T10:27:05.752Z,84.73
2018-09-29T10:28:15.851Z,84.54
2018-09-29T10:29:25.923Z,84.88
2018-09-29T10:30:36.011Z,84.78
2018-09-29T10:31:46.178Z,84.88
2018-09-29T10:32:55.991Z,84.88
2018-09-29T10:34:05.830Z,84.98
2018-09-29T10:35:15.658Z,84.78
2018-09-29T10:36:25.988Z,84.83
2018-09-29T10:37:35.889Z,84.83
2018-09-29T10:38:46.076Z,84.73
2018-09-29T10:39:56.174Z,84.73
2018-09-29T10:41:06.517Z,84.92
2018-09-29T10:42:16.597Z,84.92
2018-09-29T10:43:26.742Z,84.44
2018-09-29T10:44:36.568Z,84.34
2018-09-29T10:45:46.664Z,84.92
2018-09-29T10:46:56.746Z,84.34
2018-09-29T10:48:06.845Z,84.54
2018-09-29T10:49:16.938Z,84.44
2018-09-29T10:50:27.042Z,84.44
2018-09-29T10:51:37.144Z,84.34
2018-09-29T10:52:47.026Z,84.34
2018-09-29T10:53:56.978Z,84.34
2018-09-29T10:55:07.109Z,84.44
2018-09-29T10:56:17.210Z,84.44
2018-09-29T10:57:27.312Z,84.34
2018-09-29T10:58:37.392Z,84.25
2018-09-29T10:59:47.223Z,84.25
2018-09-29T11:00:57.302Z,84.29
2018-09-29T11:02:07.371Z,83.96
2018-09-29T11:03:17.176Z,84.58
2018-09-29T11:04:27.292Z,84.48
2018-09-29T11:05:37.387Z,84.44
2018-09-29T11:06:47.609Z,84.54
2018-09-29T11:07:57.699Z,84.34
2018-09-29T11:09:07.790Z,84.54
2018-09-29T11:10:17.877Z,84.25
2018-09-29T11:11:27.972Z,84.1
2018-09-29T11:12:37.793Z,84
2018-09-29T11:13:47.898Z,84
2018-09-29T11:14:58.004Z,84.1
2018-09-29T11:16:07.829Z,84.1
2018-09-29T11:17:17.918Z,84.39
2018-09-29T11:18:28.037Z,84
2018-09-29T11:19:38.141Z,84.29
2018-09-29T11:20:47.988Z,84.19
2018-09-29T11:21:58.121Z,84.67
2018-09-29T11:23:08.212Z,84
2018-09-29T11:24:18.029Z,84
2018-09-29T11:25:28.153Z,84.23
2018-09-29T11:26:38.045Z,84.23
2018-09-29T11:27:48.289Z,84.23
2018-09-29T11:28:58.827Z,83.95
2018-09-29T11:30:09.015Z,84.33
2018-09-29T11:31:19.105Z,84.14
2018-09-29T11:32:29.192Z,84.23
2018-09-29T11:33:38.767Z,84.05
2018-09-29T11:34:48.870Z,84.14
2018-09-29T11:35:58.749Z,84.53
2018-09-29T11:37:08.834Z,84.05
2018-09-29T11:38:18.479Z,83.85
2018-09-29T11:39:28.803Z,84.14
2018-09-29T11:40:39.241Z,84.18
2018-09-29T11:41:49.561Z,84.09
2018-09-29T11:42:59.645Z,84.47
2018-09-29T11:44:09.483Z,84.18
2018-09-29T11:45:19.149Z,84.28
2018-09-29T11:46:28.965Z,84.28
2018-09-29T11:47:38.577Z,84.18
2018-09-29T11:48:48.398Z,84.09
2018-09-29T11:49:58.550Z,84.18
2018-09-29T11:51:11.347Z,84.28
2018-09-29T11:52:21.432Z,84.38
2018-09-29T11:53:31.294Z,84.18
2018-09-29T11:54:41.385Z,84.18
2018-09-29T11:55:51.463Z,84.56
2018-09-29T11:57:03.413Z,84.66
2018-09-29T11:58:13.535Z,84.66
2018-09-29T11:59:23.643Z,84.18
2018-09-29T12:00:33.750Z,84.38
2018-09-29T12:01:43.893Z,84.56
2018-09-29T12:02:53.983Z,84.38
2018-09-29T12:04:04.083Z,84.09
2018-09-29T12:05:14.293Z,84.03
2018-09-29T12:06:24.529Z,84.38
2018-09-29T12:07:34.481Z,84.42
2018-09-29T12:08:45.135Z,84.47
2018-09-29T12:09:55.239Z,84.32
2018-09-29T12:11:05.585Z,84.42
2018-09-29T12:12:15.686Z,84.52
2018-09-29T12:13:25.795Z,84.52
2018-09-29T12:14:35.897Z,84.22
2018-09-29T12:15:45.984Z,84.52
2018-09-29T12:16:56.129Z,84.42
2018-09-29T12:18:08.634Z,84.42
2018-09-29T12:19:18.722Z,84.32
2018-09-29T12:20:28.563Z,84.22
2018-09-29T12:21:38.650Z,84.22
2018-09-29T12:22:48.737Z,84.22
2018-09-29T12:23:58.546Z,84.22
2018-09-29T12:25:08.367Z,84.32
2018-09-29T12:26:18.478Z,84.52
2018-09-29T12:27:28.557Z,84.52
2018-09-29T12:28:38.746Z,84.22
2018-09-29T12:29:48.958Z,84.56
2018-09-29T12:30:59.501Z,84.47
2018-09-29T12:32:09.605Z,84.38
2018-09-29T12:33:19.479Z,84.38
2018-09-29T12:34:29.564Z,84.09
2018-09-29T12:35:39.630Z,84.28
2018-09-29T12:36:49.561Z,84.56
2018-09-29T12:37:59.836Z,84.47
2018-09-29T12:39:10.666Z,84.28
2018-09-29T12:40:20.805Z,84.56
2018-09-29T12:41:30.610Z,84.66
2018-09-29T12:42:40.245Z,84.28
2018-09-29T12:43:49.964Z,84.28
2018-09-29T12:45:00.056Z,84.09
2018-09-29T12:46:09.753Z,84.47
2018-09-29T12:47:19.316Z,83.99
2018-09-29T12:48:29.289Z,84.28
2018-09-29T12:49:39.372Z,84.18
2018-09-29T12:50:49.184Z,83.8
2018-09-29T12:51:58.849Z,84.47
2018-09-29T12:53:08.930Z,84.28
2018-09-29T12:54:18.475Z,84.28
2018-09-29T12:55:28.302Z,84.09
2018-09-29T12:56:37.858Z,84.38
2018-09-29T12:57:47.749Z,84.18
2018-09-29T12:58:57.935Z,84.38
2018-09-29T13:00:09.376Z,84.38
2018-09-29T13:01:18.721Z,84.18
2018-09-29T13:02:28.786Z,84.09
2018-09-29T13:03:38.888Z,84.09
2018-09-29T13:04:48.973Z,84.09
2018-09-29T13:05:58.797Z,84.18
2018-09-29T13:07:08.952Z,84.38
2018-09-29T13:08:19.020Z,84.18
2018-09-29T13:09:29.104Z,84.28
2018-09-29T13:10:38.984Z,84.23
2018-09-29T13:11:49.061Z,84.43
2018-09-29T13:12:59.128Z,84.43
2018-09-29T13:14:09.214Z,84.23
2018-09-29T13:15:19.297Z,84.05
2018-09-29T13:16:29.137Z,84.05
2018-09-29T13:17:39.222Z,83.95
2018-09-29T13:18:49.351Z,84.33
2018-09-29T13:19:59.160Z,84.14
2018-09-29T13:21:09.243Z,84.14
2018-09-29T13:22:19.383Z,84.14
2018-09-29T13:23:29.241Z,84.05
2018-09-29T13:24:39.319Z,84.53
2018-09-29T13:25:49.397Z,84.53
2018-09-29T13:26:59.208Z,84.05
2018-09-29T13:28:09.086Z,83.85
2018-09-29T13:29:19.177Z,83.95
2018-09-29T13:30:29.410Z,84.14
2018-09-29T13:31:39.504Z,84.53
2018-09-29T13:32:49.369Z,84.62
2018-09-29T13:33:59.505Z,84.62
2018-09-29T13:35:09.329Z,84.23
2018-09-29T13:36:19.150Z,84.43
2018-09-29T13:37:29.224Z,84.43
2018-09-29T13:38:39.280Z,84.14
2018-09-29T13:39:49.387Z,83.85
2018-09-29T13:40:59.476Z,83.95
2018-09-29T13:42:09.831Z,84.05
2018-09-29T13:43:19.920Z,84.05
2018-09-29T13:44:30.024Z,84.05
2018-09-29T13:45:39.843Z,84.05
2018-09-29T13:46:50.173Z,84.14
2018-09-29T13:48:03.003Z,84.43
2018-09-29T13:49:13.099Z,84.33
2018-09-29T13:50:23.175Z,84.62
2018-09-29T13:51:33.050Z,84.62
2018-09-29T13:52:43.160Z,84.62
2018-09-29T13:53:53.251Z,84.53
2018-09-29T13:55:03.357Z,85.2
2018-09-29T13:56:13.435Z,84.43
2018-09-29T13:57:23.647Z,84.43
2018-09-29T13:58:34.028Z,84.43
2018-09-29T13:59:44.120Z,84.62
2018-09-29T14:00:54.212Z,85
2018-09-29T14:02:04.340Z,85
2018-09-29T14:03:14.707Z,85
2018-09-29T14:04:24.839Z,84.81
2018-09-29T14:05:34.966Z,85
2018-09-29T14:06:45.048Z,85
2018-09-29T14:07:54.878Z,84.72
2018-09-29T14:09:05.952Z,84.67
2018-09-29T14:10:15.513Z,84.58
2018-09-29T14:11:25.332Z,84.48
2018-09-29T14:12:35.410Z,84.58
2018-09-29T14:13:45.517Z,84.77
2018-09-29T14:14:55.651Z,84.97
2018-09-29T14:16:05.756Z,84.77
2018-09-29T14:17:15.866Z,84.67
2018-09-29T14:18:25.955Z,84.39
2018-09-29T14:19:36.067Z,84.58
2018-09-29T14:20:46.217Z,84.58
2018-09-29T14:21:56.332Z,84.63
2018-09-29T14:23:06.432Z,84.63
2018-09-29T14:24:16.363Z,84.63
2018-09-29T14:25:26.278Z,84.63
2018-09-29T14:26:36.358Z,84.54
2018-09-29T14:27:46.463Z,84.34
2018-09-29T14:28:56.412Z,84.63
2018-09-29T14:30:06.844Z,84.63
2018-09-29T14:31:16.870Z,84.34
2018-09-29T14:32:27.013Z,84.54
2018-09-29T14:33:36.834Z,84.34
2018-09-29T14:34:46.923Z,84.54
2018-09-29T14:35:57.020Z,84.44
2018-09-29T14:37:07.277Z,84.54
2018-09-29T14:38:16.965Z,84.44
2018-09-29T14:39:26.833Z,84.63
2018-09-29T14:40:36.923Z,84.54
2018-09-29T14:41:47.185Z,84.3
2018-09-29T14:42:57.467Z,84.59
2018-09-29T14:44:07.823Z,84.69
2018-09-29T14:45:18.619Z,84.5
2018-09-29T14:46:28.735Z,84.69
2018-09-29T14:47:39.529Z,84.69
2018-09-29T14:48:50.826Z,84.78
2018-09-29T14:50:02.187Z,84.69
2018-09-29T14:51:27.929Z,85.07
2018-09-29T14:52:40.264Z,84.98
2018-09-29T14:53:53.129Z,84.78
2018-09-29T14:55:13.155Z,85.41
2018-09-29T14:56:23.274Z,85.27
2018-09-29T14:57:35.275Z,85.46
2018-09-29T14:58:45.129Z,85.22
2018-09-29T14:59:54.972Z,85.13
2018-09-29T15:01:05.371Z,85.13
2018-09-29T15:02:15.461Z,85.22
2018-09-29T15:03:25.535Z,85.22
2018-09-29T15:04:35.105Z,85.13
2018-09-29T15:05:45.211Z,85.03
2018-09-29T15:06:55.436Z,85.32
2018-09-29T15:08:07.248Z,85.32
2018-09-29T15:09:17.347Z,85.13
2018-09-29T15:10:27.191Z,85.41
2018-09-29T15:11:37.308Z,85.51
2018-09-29T15:12:47.382Z,85.32
2018-09-29T15:13:57.467Z,85.61
2018-09-29T15:15:07.547Z,85.71
2018-09-29T15:16:17.661Z,85.61
2018-09-29T15:17:27.464Z,85.03
2018-09-29T15:18:37.339Z,85.71
2018-09-29T15:19:47.425Z,85.51
2018-09-29T15:20:57.275Z,85.8
2018-09-29T15:22:07.104Z,85.61
2018-09-29T15:23:17.191Z,85.89
2018-09-29T15:24:27.345Z,85.8
2018-09-29T15:25:37.457Z,86.05
2018-09-29T15:26:47.567Z,85.85
2018-09-29T15:27:57.654Z,85.66
2018-09-29T15:29:08.291Z,85.95
2018-09-29T15:30:18.385Z,85.66
2018-09-29T15:31:28.471Z,85.85
2018-09-29T15:32:38.577Z,86.05
2018-09-29T15:33:48.656Z,85.57
2018-09-29T15:34:58.752Z,85.75
2018-09-29T15:36:08.843Z,85.62
2018-09-29T15:37:18.952Z,85.71
2018-09-29T15:38:28.824Z,86.1